Strona główna
METAR-TAF:

METAR-TAF

Lotnisko :

Payerne, Szwajcaria

Szerokość geograficzna: 46-49N, Długość geograficzna: 006-57E, wysokość: 490 m

Aktualna obserwacja pogody

Raport powstał 43 minut temu, godzina 17:50 UTC
Wiatr 5 kt od północno-północny zachód, zmienny między zachodnio-północny zachód i północny wschód
Temperatura 27°C
Wilgotność 32%
Ciśnienie 1012 hPa
Widzialność 10 km lub więcej
Brak chmur poniżej 1500 m i brak chmur cumulonimbus

METAR: LSMP 171750Z 33005KT 300V040 CAVOK 27/09 Q1012 RMK BLU

czas: 20:33 (18:33 UTC)


TAF: brakujący

Obserwacja i prognoza pogody dla ponad 4000 lotnisk (raport METAR i TAF).

Dostępne stacje oznaczono żółtymi i czerwonymi punktami na mapie.

Najedź kursorem aby zobaczyć nazwę stacji.

Kliknij aby zobaczyć obserwacje i prognozy pogody.

Aby zmienić mapę: kliknij na zielony przycisk z czarnym krzyżykiem, aby powiększyć; na zielony przycisk z myślnikiem, aby pomniejszyć; na zielone strzałki, aby przejść do map sąsiednich.


METAR-TAF: